Time;durP1;ratioP1;P1;durP2;ratioP2;P2;SDS_P1;SDS_P2;PMS_P1;PMS_P2;Temp;Humidity;BMP_temperature;BMP_pressure;BME280_temperature;BME280_humidity;BME280_pressure;Samples;Min_cycle;Max_cycle;Signal;HPM_P1;HPM_P2
2022/01/21 00:00:03;;;;;;;3.00;0.88;;;;;;;;;;4403661;32;20424;-50
2022/01/21 00:02:36;;;;;;;1.73;0.90;;;;;;;;;;4403451;32;20502;-50
2022/01/21 00:05:06;;;;;;;3.75;0.95;;;;;;;;;;4411355;32;20035;-51
2022/01/21 00:07:34;;;;;;;2.22;0.90;;;;;;;;;;4414046;32;20048;-53
2022/01/21 00:10:03;;;;;;;2.42;0.80;;;;;;;;;;4410641;32;20098;-50
2022/01/21 00:12:33;;;;;;;3.35;0.73;;;;;;;;;;4418777;32;20402;-50
2022/01/21 00:15:03;;;;;;;2.08;0.95;;;;;;;;;;4412754;32;20042;-51
2022/01/21 00:17:32;;;;;;;1.65;0.88;;;;;;;;;;4415432;32;20072;-50
2022/01/21 00:31:08;;;;;;;4.22;1.10;;;;;;;;;;4413656;32;20362;-50
2022/01/21 00:33:37;;;;;;;1.80;0.73;;;;;;;;;;4414389;32;20090;-53
2022/01/21 00:36:06;;;;;;;1.25;0.62;;;;;;;;;;4411040;32;20027;-53
2022/01/21 00:38:34;;;;;;;2.92;0.98;;;;;;;;;;4417850;32;20384;-52
2022/01/21 00:41:05;;;;;;;3.05;1.10;;;;;;;;;;4408258;32;20442;-50
2022/01/21 00:43:43;;;;;;;3.80;0.90;;;;;;;;;;4406949;32;20109;-50
2022/01/21 00:46:13;;;;;;;3.37;1.00;;;;;;;;;;4415244;32;20095;-53
2022/01/21 00:48:41;;;;;;;3.65;1.00;;;;;;;;;;4405988;32;20042;-50
2022/01/21 00:51:09;;;;;;;1.90;0.90;;;;;;;;;;4413970;32;20042;-50
2022/01/21 00:53:38;;;;;;;2.33;0.90;;;;;;;;;;4408766;32;20088;-49
2022/01/21 00:56:06;;;;;;;1.48;0.70;;;;;;;;;;4404799;32;20073;-53
2022/01/21 00:58:35;;;;;;;3.97;0.88;;;;;;;;;;4403317;32;20452;-53
2022/01/21 01:01:04;;;;;;;7.20;1.00;;;;;;;;;;4413623;32;20061;-50
2022/01/21 01:03:32;;;;;;;1.87;0.90;;;;;;;;;;4414995;32;20213;-51
2022/01/21 01:06:01;;;;;;;2.45;0.93;;;;;;;;;;4412252;32;20377;-53
2022/01/21 01:08:29;;;;;;;3.12;0.70;;;;;;;;;;4416256;32;20033;-53
2022/01/21 01:11:14;;;;;;;3.42;0.90;;;;;;;;;;4410105;32;20056;-50
2022/01/21 01:22:06;;;;;;;2.15;0.77;;;;;;;;;;4406352;32;20053;-53
2022/01/21 01:27:40;;;;;;;1.90;0.70;;;;;;;;;;4407400;32;20068;-52
2022/01/21 01:30:21;;;;;;;4.07;1.20;;;;;;;;;;4408136;32;20047;-49
2022/01/21 01:32:50;;;;;;;2.08;1.00;;;;;;;;;;4413864;32;20073;-51
2022/01/21 01:35:20;;;;;;;2.30;0.73;;;;;;;;;;4412092;32;20035;-51
2022/01/21 01:40:45;;;;;;;2.87;0.80;;;;;;;;;;4410563;32;20085;-51
2022/01/21 01:51:19;;;;;;;1.92;0.70;;;;;;;;;;4409742;32;20077;-50
2022/01/21 01:53:50;;;;;;;1.92;1.00;;;;;;;;;;4405990;32;20074;-51
2022/01/21 01:56:21;;;;;;;1.15;0.70;;;;;;;;;;4407495;32;20366;-53
2022/01/21 01:58:49;;;;;;;2.05;0.80;;;;;;;;;;4406441;32;20106;-53
2022/01/21 02:01:17;;;;;;;1.65;0.80;;;;;;;;;;4408454;32;20518;-53
2022/01/21 02:03:46;;;;;;;2.97;1.10;;;;;;;;;;4409812;32;20384;-50
2022/01/21 02:06:14;;;;;;;4.32;0.80;;;;;;;;;;4405689;32;20444;-53
2022/01/21 02:08:43;;;;;;;3.95;0.80;;;;;;;;;;4407189;32;20043;-50
2022/01/21 02:11:11;;;;;;;3.67;0.90;;;;;;;;;;4413924;32;20410;-52
2022/01/21 02:13:44;;;;;;;2.90;1.05;;;;;;;;;;4418783;32;20033;-53
2022/01/21 02:21:46;;;;;;;3.72;1.02;;;;;;;;;;4405968;32;20088;-51
2022/01/21 02:24:19;;;;;;;2.87;0.73;;;;;;;;;;4414510;32;20380;-51
2022/01/21 02:26:50;;;;;;;3.03;1.00;;;;;;;;;;4415754;32;20054;-54
2022/01/21 02:29:44;;;;;;;1.35;0.82;;;;;;;;;;4422398;32;20060;-54
2022/01/21 02:32:12;;;;;;;2.33;1.00;;;;;;;;;;4416487;32;20037;-55
2022/01/21 02:34:41;;;;;;;2.95;0.70;;;;;;;;;;4411020;32;20105;-52
2022/01/21 02:37:11;;;;;;;1.42;0.80;;;;;;;;;;4404129;32;20527;-50
2022/01/21 02:39:39;;;;;;;2.12;0.90;;;;;;;;;;4406887;32;20102;-52
2022/01/21 02:42:08;;;;;;;3.10;1.10;;;;;;;;;;4412958;32;20065;-52
2022/01/21 02:44:38;;;;;;;2.47;1.08;;;;;;;;;;4404158;32;20132;-50
2022/01/21 02:47:08;;;;;;;2.83;0.80;;;;;;;;;;4415119;32;20526;-52
2022/01/21 02:49:37;;;;;;;2.65;0.70;;;;;;;;;;4415307;32;20440;-51
2022/01/21 02:52:07;;;;;;;1.80;0.90;;;;;;;;;;4408295;32;20087;-51
2022/01/21 02:54:35;;;;;;;2.65;1.00;;;;;;;;;;4405505;32;20046;-50
2022/01/21 02:57:05;;;;;;;1.77;0.80;;;;;;;;;;4408582;32;20050;-52
2022/01/21 02:59:33;;;;;;;1.65;0.90;;;;;;;;;;4412937;32;20110;-53
2022/01/21 03:02:02;;;;;;;3.28;0.90;;;;;;;;;;4403546;32;20025;-52
2022/01/21 03:07:00;;;;;;;4.18;0.88;;;;;;;;;;4418228;32;20055;-51
2022/01/21 03:09:29;;;;;;;1.65;0.77;;;;;;;;;;4412183;32;20053;-52
2022/01/21 03:11:58;;;;;;;1.75;0.80;;;;;;;;;;4411395;32;20111;-52
2022/01/21 03:14:26;;;;;;;2.22;0.80;;;;;;;;;;4414885;32;20063;-51
2022/01/21 03:16:55;;;;;;;2.78;0.82;;;;;;;;;;4412250;32;20035;-52
2022/01/21 03:19:24;;;;;;;3.17;0.80;;;;;;;;;;4418673;32;20030;-51
2022/01/21 03:21:52;;;;;;;2.83;0.90;;;;;;;;;;4417839;32;20118;-54
2022/01/21 03:24:20;;;;;;;2.80;0.82;;;;;;;;;;4419112;32;20054;-53
2022/01/21 03:26:49;;;;;;;1.87;0.80;;;;;;;;;;4411993;32;20065;-54
2022/01/21 03:29:18;;;;;;;3.83;0.90;;;;;;;;;;4419551;32;20464;-51
2022/01/21 03:31:46;;;;;;;1.70;0.70;;;;;;;;;;4421590;32;20491;-51
2022/01/21 03:34:15;;;;;;;3.90;0.98;;;;;;;;;;4413347;32;20360;-51
2022/01/21 03:36:43;;;;;;;3.62;1.05;;;;;;;;;;4412507;32;20069;-53
2022/01/21 03:39:12;;;;;;;3.53;0.90;;;;;;;;;;4415114;32;20065;-52
2022/01/21 03:41:40;;;;;;;4.37;0.98;;;;;;;;;;4408502;32;20068;-54
2022/01/21 03:44:09;;;;;;;1.85;0.90;;;;;;;;;;4417147;32;20390;-53
2022/01/21 03:46:38;;;;;;;1.83;0.93;;;;;;;;;;4416809;32;20073;-51
2022/01/21 03:49:08;;;;;;;3.35;0.90;;;;;;;;;;4412379;32;20031;-52
2022/01/21 03:51:37;;;;;;;3.25;0.80;;;;;;;;;;4410749;32;20057;-51
2022/01/21 03:54:05;;;;;;;3.67;1.00;;;;;;;;;;4406226;32;20065;-54
2022/01/21 03:56:36;;;;;;;1.65;0.90;;;;;;;;;;4414682;32;20034;-53
2022/01/21 03:59:05;;;;;;;3.37;1.10;;;;;;;;;;4415075;32;20083;-52
2022/01/21 04:01:34;;;;;;;2.72;0.90;;;;;;;;;;4418797;32;20425;-51
2022/01/21 04:04:03;;;;;;;2.12;0.90;;;;;;;;;;4416530;32;20479;-54
2022/01/21 04:06:32;;;;;;;2.35;0.80;;;;;;;;;;4415853;32;20034;-52
2022/01/21 04:09:01;;;;;;;2.45;0.80;;;;;;;;;;4414226;32;20061;-52
2022/01/21 04:11:30;;;;;;;1.25;0.70;;;;;;;;;;4406776;32;20395;-52
2022/01/21 04:13:58;;;;;;;3.00;0.73;;;;;;;;;;4411260;32;20060;-54
2022/01/21 04:16:27;;;;;;;5.78;0.98;;;;;;;;;;4416813;32;20630;-51
2022/01/21 04:18:55;;;;;;;1.85;1.10;;;;;;;;;;4410071;32;20053;-52
2022/01/21 04:21:23;;;;;;;3.83;0.80;;;;;;;;;;4412358;32;20095;-51
2022/01/21 04:23:52;;;;;;;1.20;0.77;;;;;;;;;;4418684;32;20095;-51
2022/01/21 04:26:22;;;;;;;2.28;1.05;;;;;;;;;;4410277;32;20038;-54
2022/01/21 04:29:01;;;;;;;4.45;0.80;;;;;;;;;;4417530;32;20353;-52
2022/01/21 04:31:34;;;;;;;4.57;0.90;;;;;;;;;;4410611;32;20058;-52
2022/01/21 04:34:02;;;;;;;2.12;1.00;;;;;;;;;;4416343;32;20034;-51
2022/01/21 04:36:32;;;;;;;3.35;1.10;;;;;;;;;;4416149;32;20049;-51
2022/01/21 04:39:02;;;;;;;2.92;1.05;;;;;;;;;;4415491;32;20031;-52
2022/01/21 04:49:37;;;;;;;2.17;0.80;;;;;;;;;;4416181;32;20049;-51
2022/01/21 04:52:06;;;;;;;4.70;1.05;;;;;;;;;;4413839;32;20074;-53
2022/01/21 04:54:35;;;;;;;3.62;0.90;;;;;;;;;;4411587;32;20069;-53
2022/01/21 04:57:05;;;;;;;2.47;0.82;;;;;;;;;;4410666;32;20063;-50
2022/01/21 04:59:34;;;;;;;2.37;0.80;;;;;;;;;;4414046;32;20050;-54
2022/01/21 05:02:02;;;;;;;3.53;1.00;;;;;;;;;;4417844;32;20303;-51
2022/01/21 05:04:31;;;;;;;1.92;1.08;;;;;;;;;;4409659;32;20030;-51
2022/01/21 05:07:02;;;;;;;2.65;0.90;;;;;;;;;;4414943;32;20038;-51
2022/01/21 05:09:34;;;;;;;4.65;0.85;;;;;;;;;;4412526;32;20031;-52
2022/01/21 05:12:07;;;;;;;1.55;0.77;;;;;;;;;;4413789;32;20064;-51
2022/01/21 05:17:45;;;;;;;1.77;0.62;;;;;;;;;;4404720;32;20090;-53
2022/01/21 05:20:14;;;;;;;1.70;0.80;;;;;;;;;;4408899;32;20066;-51
2022/01/21 05:22:44;;;;;;;2.10;0.80;;;;;;;;;;4413982;32;20098;-51
2022/01/21 05:25:17;;;;;;;0.90;0.73;;;;;;;;;;4413386;32;20060;-53
2022/01/21 05:27:50;;;;;;;1.92;0.82;;;;;;;;;;4410967;32;20508;-51
2022/01/21 05:30:18;;;;;;;4.75;0.90;;;;;;;;;;4419904;32;20100;-53
2022/01/21 05:32:47;;;;;;;3.33;1.00;;;;;;;;;;4416204;32;20038;-53
2022/01/21 05:35:16;;;;;;;3.53;1.00;;;;;;;;;;4410437;32;20433;-51
2022/01/21 05:37:44;;;;;;;4.32;1.05;;;;;;;;;;4410649;32;20058;-51
2022/01/21 05:40:14;;;;;;;3.40;0.70;;;;;;;;;;4415010;32;20027;-52
2022/01/21 05:42:43;;;;;;;2.22;0.88;;;;;;;;;;4415578;32;20034;-50
2022/01/21 05:48:00;;;;;;;4.30;1.05;;;;;;;;;;4409312;32;20106;-51
2022/01/21 05:50:29;;;;;;;2.83;1.00;;;;;;;;;;4413763;32;20046;-52
2022/01/21 05:53:01;;;;;;;2.83;0.90;;;;;;;;;;4407878;32;20093;-51
2022/01/21 05:55:32;;;;;;;2.30;0.80;;;;;;;;;;4411637;32;20065;-51
2022/01/21 05:58:00;;;;;;;4.30;1.05;;;;;;;;;;4408629;32;20066;-51
2022/01/21 06:00:33;;;;;;;2.17;0.77;;;;;;;;;;4406896;32;20117;-51
2022/01/21 06:03:02;;;;;;;2.97;0.98;;;;;;;;;;4409594;32;20074;-51
2022/01/21 06:05:33;;;;;;;4.47;1.35;;;;;;;;;;4413349;32;20397;-50
2022/01/21 06:08:05;;;;;;;7.03;0.95;;;;;;;;;;4409562;32;20091;-51
2022/01/21 06:10:34;;;;;;;3.33;1.23;;;;;;;;;;4409396;32;20083;-54
2022/01/21 06:13:02;;;;;;;2.80;0.95;;;;;;;;;;4407717;32;20052;-51
2022/01/21 06:15:30;;;;;;;3.10;1.00;;;;;;;;;;4407034;32;20035;-51
2022/01/21 06:17:59;;;;;;;1.58;0.98;;;;;;;;;;4409640;32;20038;-51
2022/01/21 06:20:29;;;;;;;4.25;1.05;;;;;;;;;;4415111;32;20479;-50
2022/01/21 06:22:58;;;;;;;2.87;0.90;;;;;;;;;;4418582;32;20100;-51
2022/01/21 06:25:26;;;;;;;2.92;1.00;;;;;;;;;;4414106;32;20087;-51
2022/01/21 06:27:55;;;;;;;2.10;0.90;;;;;;;;;;4411427;32;20090;-51
2022/01/21 06:30:23;;;;;;;2.92;1.20;;;;;;;;;;4411116;32;20101;-51
2022/01/21 06:32:52;;;;;;;3.58;1.15;;;;;;;;;;4408737;32;20034;-51
2022/01/21 06:35:20;;;;;;;3.17;0.88;;;;;;;;;;4408336;32;20037;-52
2022/01/21 06:37:48;;;;;;;5.18;1.20;;;;;;;;;;4411539;32;20153;-51
2022/01/21 06:40:20;;;;;;;2.72;1.00;;;;;;;;;;4414007;32;20075;-51
2022/01/21 06:42:49;;;;;;;2.53;1.00;;;;;;;;;;4416635;32;20476;-54
2022/01/21 06:45:18;;;;;;;2.08;0.82;;;;;;;;;;4412909;32;20060;-53
2022/01/21 06:47:47;;;;;;;2.72;0.90;;;;;;;;;;4414128;32;20058;-50
2022/01/21 06:50:15;;;;;;;4.15;1.20;;;;;;;;;;4410983;32;20521;-51
2022/01/21 06:52:43;;;;;;;3.58;0.90;;;;;;;;;;4409387;32;20042;-52
2022/01/21 06:55:12;;;;;;;3.03;1.00;;;;;;;;;;4412301;32;20051;-51
2022/01/21 06:57:40;;;;;;;1.85;0.95;;;;;;;;;;4406945;32;20373;-52
2022/01/21 07:00:10;;;;;;;1.55;0.80;;;;;;;;;;4417369;32;20071;-51
2022/01/21 07:02:38;;;;;;;2.28;0.85;;;;;;;;;;4413775;32;20069;-52
2022/01/21 07:05:07;;;;;;;5.37;1.00;;;;;;;;;;4412902;32;20428;-51
2022/01/21 07:07:35;;;;;;;3.20;0.85;;;;;;;;;;4409778;32;20054;-52
2022/01/21 07:10:06;;;;;;;1.95;0.98;;;;;;;;;;4411415;32;20061;-54
2022/01/21 07:12:35;;;;;;;2.35;0.90;;;;;;;;;;4415163;32;20057;-54
2022/01/21 07:15:04;;;;;;;2.85;1.00;;;;;;;;;;4415522;32;20097;-51
2022/01/21 07:17:33;;;;;;;1.58;0.80;;;;;;;;;;4407165;32;20059;-50
2022/01/21 07:20:02;;;;;;;2.62;0.88;;;;;;;;;;4419416;32;20048;-51
2022/01/21 07:22:31;;;;;;;2.37;0.80;;;;;;;;;;4421178;32;20080;-51
2022/01/21 07:24:59;;;;;;;2.62;1.10;;;;;;;;;;4410463;32;20416;-51
2022/01/21 07:27:28;;;;;;;1.90;0.80;;;;;;;;;;4409497;32;20054;-51
2022/01/21 07:29:56;;;;;;;1.80;0.88;;;;;;;;;;4402984;32;20157;-52
2022/01/21 07:32:24;;;;;;;2.72;0.85;;;;;;;;;;4408737;32;20042;-50
2022/01/21 07:34:53;;;;;;;4.28;0.90;;;;;;;;;;4403920;32;20061;-50
2022/01/21 07:37:21;;;;;;;7.82;1.35;;;;;;;;;;4406635;32;20042;-51
2022/01/21 07:39:50;;;;;;;2.78;0.98;;;;;;;;;;4414534;32;20066;-50
2022/01/21 07:42:18;;;;;;;3.80;0.80;;;;;;;;;;4410066;32;20078;-50
2022/01/21 07:44:47;;;;;;;4.00;0.70;;;;;;;;;;4417125;32;20027;-54
2022/01/21 07:47:15;;;;;;;3.72;0.90;;;;;;;;;;4410986;32;20076;-52
2022/01/21 07:49:44;;;;;;;4.35;0.95;;;;;;;;;;4409921;32;20455;-52
2022/01/21 07:52:16;;;;;;;2.67;0.95;;;;;;;;;;4416725;32;20043;-51
2022/01/21 07:54:44;;;;;;;3.78;0.90;;;;;;;;;;4418654;32;20045;-52
2022/01/21 07:57:13;;;;;;;3.55;1.00;;;;;;;;;;4405720;32;20042;-50
2022/01/21 07:59:41;;;;;;;3.75;1.15;;;;;;;;;;4406561;32;20111;-51
2022/01/21 08:02:10;;;;;;;4.45;1.10;;;;;;;;;;4413559;32;20079;-52
2022/01/21 08:04:38;;;;;;;7.30;1.27;;;;;;;;;;4417992;32;20066;-52
2022/01/21 08:07:09;;;;;;;5.75;0.95;;;;;;;;;;4408751;32;20106;-52
2022/01/21 08:09:38;;;;;;;2.58;0.90;;;;;;;;;;4412086;32;20038;-50
2022/01/21 08:12:06;;;;;;;4.78;0.90;;;;;;;;;;4415607;32;20413;-51
2022/01/21 08:14:35;;;;;;;2.65;0.90;;;;;;;;;;4408858;32;20057;-54
2022/01/21 08:17:03;;;;;;;5.28;1.00;;;;;;;;;;4407655;32;20460;-52
2022/01/21 08:19:32;;;;;;;4.32;1.00;;;;;;;;;;4414297;32;20377;-51
2022/01/21 08:22:00;;;;;;;5.37;1.33;;;;;;;;;;4417284;32;20046;-52
2022/01/21 08:24:29;;;;;;;5.15;1.25;;;;;;;;;;4411126;32;20416;-54
2022/01/21 08:26:57;;;;;;;3.12;1.00;;;;;;;;;;4417380;32;20035;-53
2022/01/21 08:29:25;;;;;;;6.37;1.08;;;;;;;;;;4410727;32;20069;-51
2022/01/21 08:31:54;;;;;;;2.50;0.90;;;;;;;;;;4405733;32;20073;-51
2022/01/21 08:34:23;;;;;;;6.97;1.20;;;;;;;;;;4417539;32;20046;-53
2022/01/21 08:36:54;;;;;;;3.08;0.95;;;;;;;;;;4412649;32;20092;-51
2022/01/21 08:39:23;;;;;;;3.97;0.90;;;;;;;;;;4410765;32;20038;-52
2022/01/21 08:41:51;;;;;;;5.57;1.10;;;;;;;;;;4415131;32;20034;-53
2022/01/21 08:44:19;;;;;;;4.10;1.00;;;;;;;;;;4411248;32;20078;-52
2022/01/21 08:46:48;;;;;;;5.03;1.00;;;;;;;;;;4407397;32;20094;-54
2022/01/21 08:49:36;;;;;;;2.50;1.00;;;;;;;;;;4416446;32;20084;-52
2022/01/21 08:52:05;;;;;;;4.65;1.20;;;;;;;;;;4417891;32;20443;-54
2022/01/21 08:54:34;;;;;;;3.12;1.02;;;;;;;;;;4407336;32;20441;-51
2022/01/21 08:57:02;;;;;;;7.15;1.55;;;;;;;;;;4407977;32;20373;-54
2022/01/21 08:59:31;;;;;;;6.00;1.20;;;;;;;;;;4406887;32;20429;-52
2022/01/21 09:01:59;;;;;;;5.37;1.33;;;;;;;;;;4416373;32;20078;-54
2022/01/21 09:04:28;;;;;;;5.15;1.10;;;;;;;;;;4411676;32;20038;-51
2022/01/21 09:06:56;;;;;;;4.72;1.20;;;;;;;;;;4404297;32;20370;-51
2022/01/21 09:09:25;;;;;;;4.25;1.48;;;;;;;;;;4403269;32;20519;-52
2022/01/21 09:11:59;;;;;;;5.93;1.27;;;;;;;;;;4414255;32;20084;-51
2022/01/21 09:14:28;;;;;;;6.37;1.27;;;;;;;;;;4401829;32;20042;-53
2022/01/21 09:16:57;;;;;;;3.53;1.50;;;;;;;;;;4410545;32;20081;-53
2022/01/21 09:19:26;;;;;;;6.75;1.45;;;;;;;;;;4407915;32;20050;-52
2022/01/21 09:21:56;;;;;;;4.93;1.23;;;;;;;;;;4410330;32;20045;-50
2022/01/21 09:24:25;;;;;;;4.40;1.30;;;;;;;;;;4406846;32;20055;-53
2022/01/21 09:26:53;;;;;;;6.78;0.93;;;;;;;;;;4416883;32;20555;-53
2022/01/21 09:29:21;;;;;;;6.53;1.50;;;;;;;;;;4411099;32;20050;-51
2022/01/21 09:31:50;;;;;;;2.40;0.95;;;;;;;;;;4408197;32;20057;-53
2022/01/21 09:34:24;;;;;;;6.40;1.20;;;;;;;;;;4414478;32;20455;-52
2022/01/21 09:36:53;;;;;;;6.85;1.42;;;;;;;;;;4403905;32;20038;-51
2022/01/21 09:39:21;;;;;;;5.68;1.23;;;;;;;;;;4408781;32;20041;-51
2022/01/21 09:41:50;;;;;;;7.68;1.48;;;;;;;;;;4408646;32;20049;-52
2022/01/21 09:44:20;;;;;;;5.85;1.17;;;;;;;;;;4406172;32;20093;-51
2022/01/21 09:46:50;;;;;;;4.72;1.20;;;;;;;;;;4412667;32;20207;-50
2022/01/21 09:51:52;;;;;;;5.90;1.62;;;;;;;;;;4409815;32;20531;-50
2022/01/21 09:54:21;;;;;;;9.40;1.33;;;;;;;;;;4405348;32;20062;-51
2022/01/21 09:56:50;;;;;;;7.12;1.17;;;;;;;;;;4411549;32;20108;-51
2022/01/21 09:59:19;;;;;;;7.15;1.50;;;;;;;;;;4407649;32;20093;-51
2022/01/21 10:01:49;;;;;;;7.60;1.52;;;;;;;;;;4411582;32;20053;-50
2022/01/21 10:04:19;;;;;;;8.27;1.62;;;;;;;;;;4411416;32;20434;-51
2022/01/21 10:06:48;;;;;;;10.70;1.73;;;;;;;;;;4410268;32;20388;-54
2022/01/21 10:09:16;;;;;;;5.65;1.10;;;;;;;;;;4404676;32;20051;-51
2022/01/21 10:11:48;;;;;;;10.23;1.75;;;;;;;;;;4411257;32;20049;-51
2022/01/21 10:14:20;;;;;;;7.62;1.42;;;;;;;;;;4409764;32;20030;-51
2022/01/21 10:16:49;;;;;;;5.90;1.45;;;;;;;;;;4406459;32;20460;-52
2022/01/21 10:19:24;;;;;;;9.88;1.80;;;;;;;;;;4414199;32;20070;-50
2022/01/21 10:21:58;;;;;;;8.88;1.42;;;;;;;;;;4415138;32;20120;-52
2022/01/21 10:24:26;;;;;;;11.25;2.22;;;;;;;;;;4419972;32;20467;-52
2022/01/21 10:26:56;;;;;;;7.93;1.80;;;;;;;;;;4416249;32;20440;-51
2022/01/21 10:29:25;;;;;;;11.85;1.80;;;;;;;;;;4406435;32;20050;-53
2022/01/21 10:31:54;;;;;;;6.47;1.70;;;;;;;;;;4413000;32;20056;-50
2022/01/21 10:34:30;;;;;;;7.35;1.50;;;;;;;;;;4411501;32;20073;-51
2022/01/21 10:37:06;;;;;;;11.98;2.08;;;;;;;;;;4414643;32;20088;-53
2022/01/21 10:39:55;;;;;;;8.40;1.87;;;;;;;;;;4408164;32;20047;-52
2022/01/21 10:42:24;;;;;;;9.25;1.67;;;;;;;;;;4407273;32;20065;-50
2022/01/21 10:44:53;;;;;;;8.13;1.70;;;;;;;;;;4419585;32;20035;-51
2022/01/21 10:47:31;;;;;;;7.32;1.60;;;;;;;;;;4409236;32;20050;-52
2022/01/21 10:50:02;;;;;;;13.52;1.92;;;;;;;;;;4412941;32;20089;-53
2022/01/21 10:52:35;;;;;;;9.27;1.65;;;;;;;;;;4421907;32;20103;-51
2022/01/21 10:55:06;;;;;;;14.32;2.08;;;;;;;;;;4412321;32;20357;-54
2022/01/21 10:57:36;;;;;;;12.37;2.20;;;;;;;;;;4406944;32;20425;-50
2022/01/21 11:00:10;;;;;;;11.82;1.75;;;;;;;;;;4407663;32;20065;-51
2022/01/21 11:02:46;;;;;;;11.80;1.90;;;;;;;;;;4411597;32;20050;-52
2022/01/21 11:05:31;;;;;;;10.07;1.98;;;;;;;;;;4414803;32;20053;-51
2022/01/21 11:08:03;;;;;;;8.80;1.92;;;;;;;;;;4410931;32;20168;-52
2022/01/21 11:10:35;;;;;;;8.32;1.77;;;;;;;;;;4409767;32;20392;-53
2022/01/21 11:13:23;;;;;;;9.80;1.80;;;;;;;;;;4411277;32;20175;-50
2022/01/21 11:15:58;;;;;;;11.80;1.95;;;;;;;;;;4401447;32;20153;-53
2022/01/21 11:18:54;;;;;;;9.82;2.00;;;;;;;;;;4405802;32;20045;-52
2022/01/21 11:21:24;;;;;;;8.73;1.80;;;;;;;;;;4408779;32;20046;-50
2022/01/21 11:24:04;;;;;;;11.52;2.20;;;;;;;;;;4412874;32;20034;-53
2022/01/21 11:26:33;;;;;;;8.52;1.92;;;;;;;;;;4409887;32;20095;-54
2022/01/21 11:29:02;;;;;;;11.90;2.10;;;;;;;;;;4404229;32;20080;-51
2022/01/21 11:31:31;;;;;;;13.10;2.33;;;;;;;;;;4414100;32;20034;-51
2022/01/21 11:34:10;;;;;;;15.38;2.92;;;;;;;;;;4408801;32;20109;-51
2022/01/21 11:36:39;;;;;;;12.68;1.90;;;;;;;;;;4408233;32;20107;-52
2022/01/21 11:39:07;;;;;;;14.75;2.70;;;;;;;;;;4413098;32;20057;-51
2022/01/21 11:41:38;;;;;;;14.25;2.00;;;;;;;;;;4413565;32;20034;-51
2022/01/21 11:44:07;;;;;;;11.10;2.00;;;;;;;;;;4406628;32;20026;-51
2022/01/21 11:46:40;;;;;;;14.38;2.65;;;;;;;;;;4411450;32;20105;-53
2022/01/21 11:49:17;;;;;;;16.08;2.53;;;;;;;;;;4407656;32;20047;-51
2022/01/21 11:51:45;;;;;;;10.32;2.00;;;;;;;;;;4411845;32;20155;-51
2022/01/21 11:54:15;;;;;;;15.75;2.58;;;;;;;;;;4414059;32;20030;-53
2022/01/21 11:56:48;;;;;;;10.15;2.17;;;;;;;;;;4404505;32;20035;-51
2022/01/21 11:59:29;;;;;;;12.77;2.12;;;;;;;;;;4406078;32;20426;-50
2022/01/21 12:01:58;;;;;;;14.18;2.37;;;;;;;;;;4405469;32;20085;-51
2022/01/21 12:04:30;;;;;;;13.68;2.35;;;;;;;;;;4409503;32;20045;-52
2022/01/21 12:06:59;;;;;;;11.07;2.35;;;;;;;;;;4410684;32;20043;-51
2022/01/21 12:09:46;;;;;;;15.90;2.70;;;;;;;;;;4405592;32;20050;-50
2022/01/21 12:12:15;;;;;;;13.93;2.60;;;;;;;;;;4409692;32;20414;-54
2022/01/21 12:14:49;;;;;;;14.45;2.25;;;;;;;;;;4409527;32;20023;-53
2022/01/21 12:17:47;;;;;;;14.82;2.55;;;;;;;;;;4405446;32;20051;-52
2022/01/21 12:20:15;;;;;;;15.65;2.58;;;;;;;;;;4412696;32;20081;-51
2022/01/21 12:22:44;;;;;;;14.23;2.80;;;;;;;;;;4413435;32;20039;-54
2022/01/21 12:25:13;;;;;;;13.10;2.42;;;;;;;;;;4417340;32;20038;-54
2022/01/21 12:28:02;;;;;;;13.57;2.90;;;;;;;;;;4409431;32;20034;-50
2022/01/21 12:30:31;;;;;;;18.30;2.90;;;;;;;;;;4411975;32;20113;-52
2022/01/21 12:33:04;;;;;;;11.07;2.65;;;;;;;;;;4417732;32;20043;-51
2022/01/21 12:35:36;;;;;;;11.38;2.33;;;;;;;;;;4417291;32;20058;-51
2022/01/21 12:40:58;;;;;;;13.43;2.70;;;;;;;;;;4409427;32;20039;-52
2022/01/21 12:43:37;;;;;;;15.30;2.53;;;;;;;;;;4409821;32;20062;-51
2022/01/21 12:46:09;;;;;;;16.60;3.03;;;;;;;;;;4402180;32;20054;-50
2022/01/21 12:48:39;;;;;;;11.50;2.20;;;;;;;;;;4408128;32;20031;-53
2022/01/21 12:57:01;;;;;;;14.35;2.60;;;;;;;;;;4413881;32;20037;-51
2022/01/21 12:59:31;;;;;;;13.45;2.62;;;;;;;;;;4413957;32;20057;-51
2022/01/21 13:02:05;;;;;;;12.30;2.50;;;;;;;;;;4404794;32;20075;-52
2022/01/21 13:04:33;;;;;;;;;;;;;;;;;;4407195;32;20067;-51
2022/01/21 13:07:12;;;;;;;12.75;2.67;;;;;;;;;;4406254;32;19953;-50
2022/01/21 13:10:00;;;;;;;16.17;2.70;;;;;;;;;;4408230;32;20034;-50
2022/01/21 13:12:58;;;;;;;16.10;2.62;;;;;;;;;;4410185;32;20105;-51
2022/01/21 13:15:39;;;;;;;17.05;3.15;;;;;;;;;;4410689;32;20099;-51
2022/01/21 13:18:12;;;;;;;17.45;2.80;;;;;;;;;;4412020;32;20106;-53
2022/01/21 13:20:43;;;;;;;13.87;2.80;;;;;;;;;;4410647;32;20460;-50
2022/01/21 13:23:13;;;;;;;10.93;2.75;;;;;;;;;;4416394;32;20053;-53
2022/01/21 13:25:45;;;;;;;15.18;2.55;;;;;;;;;;4402068;32;20034;-50
2022/01/21 13:28:14;;;;;;;15.75;3.15;;;;;;;;;;4414150;32;20038;-54
2022/01/21 13:30:42;;;;;;;15.52;2.87;;;;;;;;;;4410551;32;20034;-51
2022/01/21 13:33:12;;;;;;;13.38;2.95;;;;;;;;;;4409840;32;20038;-51
2022/01/21 13:35:47;;;;;;;12.73;2.85;;;;;;;;;;4413920;32;20077;-51
2022/01/21 13:38:17;;;;;;;13.18;2.90;;;;;;;;;;4411516;32;20054;-51
2022/01/21 13:40:47;;;;;;;18.58;3.37;;;;;;;;;;4412226;32;20046;-51
2022/01/21 13:43:17;;;;;;;12.07;3.15;;;;;;;;;;4414335;32;20047;-50
2022/01/21 13:45:57;;;;;;;14.18;3.40;;;;;;;;;;4413288;32;20023;-51
2022/01/21 13:48:26;;;;;;;14.90;3.25;;;;;;;;;;4411980;32;20098;-51
2022/01/21 13:50:55;;;;;;;15.55;3.35;;;;;;;;;;4411886;32;20046;-51
2022/01/21 13:53:23;;;;;;;17.48;3.05;;;;;;;;;;4408654;32;20552;-53
2022/01/21 13:55:53;;;;;;;15.52;3.10;;;;;;;;;;4416366;32;20102;-51
2022/01/21 13:58:21;;;;;;;15.57;2.87;;;;;;;;;;4408166;32;20042;-51
2022/01/21 14:00:51;;;;;;;16.35;3.53;;;;;;;;;;4416098;32;20031;-51
2022/01/21 14:03:28;;;;;;;17.17;2.83;;;;;;;;;;4405932;32;20124;-51
2022/01/21 14:05:58;;;;;;;13.40;2.70;;;;;;;;;;4416225;32;20062;-52
2022/01/21 14:08:36;;;;;;;17.25;3.33;;;;;;;;;;4414374;32;20418;-52
2022/01/21 14:11:09;;;;;;;14.82;2.70;;;;;;;;;;4413482;32;20073;-52
2022/01/21 14:13:39;;;;;;;18.73;2.85;;;;;;;;;;4409235;32;20363;-51
2022/01/21 14:16:10;;;;;;;16.20;2.62;;;;;;;;;;4413427;32;20057;-51
2022/01/21 14:18:40;;;;;;;15.88;2.85;;;;;;;;;;4416286;32;20050;-50
2022/01/21 14:21:13;;;;;;;18.02;2.87;;;;;;;;;;4408075;32;20414;-53
2022/01/21 14:23:43;;;;;;;16.92;3.00;;;;;;;;;;4409626;32;20042;-52
2022/01/21 14:26:13;;;;;;;12.50;2.90;;;;;;;;;;4409385;32;20086;-51
2022/01/21 14:28:44;;;;;;;18.12;3.10;;;;;;;;;;4405133;32;20061;-50
2022/01/21 14:31:29;;;;;;;14.80;2.62;;;;;;;;;;4414935;32;20050;-51
2022/01/21 14:33:58;;;;;;;15.95;2.60;;;;;;;;;;4413180;32;20129;-51
2022/01/21 14:36:27;;;;;;;15.40;3.00;;;;;;;;;;4406619;32;20092;-51
2022/01/21 14:39:15;;;;;;;13.30;2.97;;;;;;;;;;4411171;32;20053;-51
2022/01/21 14:41:45;;;;;;;15.02;2.87;;;;;;;;;;4410043;32;20041;-50
2022/01/21 14:44:36;;;;;;;15.75;3.37;;;;;;;;;;4419627;32;20077;-52
2022/01/21 14:47:15;;;;;;;11.98;2.37;;;;;;;;;;4412469;32;20414;-50
2022/01/21 14:49:45;;;;;;;14.00;2.97;;;;;;;;;;4414549;32;20600;-50
2022/01/21 14:54:55;;;;;;;15.90;2.97;;;;;;;;;;4407111;32;20089;-51
2022/01/21 14:57:29;;;;;;;14.95;3.28;;;;;;;;;;4406849;32;20062;-51
2022/01/21 15:00:03;;;;;;;13.48;2.70;;;;;;;;;;4413297;32;20038;-52
2022/01/21 15:02:33;;;;;;;20.23;3.25;;;;;;;;;;4416277;32;20050;-51
2022/01/21 15:05:04;;;;;;;16.90;2.87;;;;;;;;;;4415678;32;20046;-50
2022/01/21 15:07:33;;;;;;;13.80;2.97;;;;;;;;;;4415671;32;20031;-52
2022/01/21 15:10:03;;;;;;;15.63;3.00;;;;;;;;;;4408995;32;20050;-52
2022/01/21 15:15:46;;;;;;;15.93;3.35;;;;;;;;;;4416707;32;20077;-52
2022/01/21 15:18:16;;;;;;;15.85;3.55;;;;;;;;;;4412568;32;20050;-50
2022/01/21 15:20:46;;;;;;;14.93;2.95;;;;;;;;;;4408343;32;20042;-54
2022/01/21 15:23:15;;;;;;;15.27;3.10;;;;;;;;;;4417490;32;20049;-51
2022/01/21 15:25:43;;;;;;;13.10;2.62;;;;;;;;;;4417804;32;20046;-50
2022/01/21 15:28:12;;;;;;;16.83;3.17;;;;;;;;;;4409014;32;20019;-50
2022/01/21 15:30:40;;;;;;;16.92;3.20;;;;;;;;;;4414229;32;20418;-51
2022/01/21 15:33:08;;;;;;;11.77;2.97;;;;;;;;;;4417795;32;20031;-53
2022/01/21 15:35:37;;;;;;;11.48;3.03;;;;;;;;;;4418884;32;20069;-50
2022/01/21 15:38:05;;;;;;;16.73;2.92;;;;;;;;;;4411781;32;20396;-51
2022/01/21 15:40:35;;;;;;;15.02;2.80;;;;;;;;;;4413915;32;20066;-52
2022/01/21 15:43:03;;;;;;;12.80;3.03;;;;;;;;;;4411115;32;20045;-54
2022/01/21 15:45:31;;;;;;;15.30;3.05;;;;;;;;;;4411148;32;20072;-52
2022/01/21 15:48:00;;;;;;;13.77;2.78;;;;;;;;;;4410133;32;20484;-54
2022/01/21 15:50:28;;;;;;;17.95;3.08;;;;;;;;;;4412768;32;20089;-52
2022/01/21 15:52:56;;;;;;;11.77;2.45;;;;;;;;;;4416851;32;20098;-54
2022/01/21 15:55:24;;;;;;;14.30;2.78;;;;;;;;;;4404439;32;20084;-51
2022/01/21 15:57:54;;;;;;;13.60;2.80;;;;;;;;;;4420092;32;20042;-50
2022/01/21 16:00:22;;;;;;;12.82;2.65;;;;;;;;;;4417409;32;20369;-51
2022/01/21 16:02:51;;;;;;;11.73;2.90;;;;;;;;;;4417637;32;20070;-51
2022/01/21 16:05:19;;;;;;;14.35;2.87;;;;;;;;;;4412078;32;20080;-51
2022/01/21 16:07:47;;;;;;;14.18;3.15;;;;;;;;;;4419357;32;20045;-51
2022/01/21 16:10:16;;;;;;;12.90;2.80;;;;;;;;;;4411097;32;20043;-50